createdAt,value
2019-01-27T00:00:12.948Z,21.54
2019-01-27T00:02:14.582Z,21.54
2019-01-27T00:04:16.164Z,21.57
2019-01-27T00:06:17.814Z,21.52
2019-01-27T00:08:19.422Z,21.49
2019-01-27T00:10:21.071Z,21.48
2019-01-27T00:12:22.694Z,21.47
2019-01-27T00:14:24.299Z,21.45
2019-01-27T00:16:25.888Z,21.44
2019-01-27T00:18:27.513Z,21.42
2019-01-27T00:20:29.115Z,21.42
2019-01-27T00:22:30.756Z,21.43
2019-01-27T00:24:32.354Z,21.39
2019-01-27T00:26:33.950Z,21.33
2019-01-27T00:28:35.575Z,21.32
2019-01-27T00:30:37.183Z,21.31
2019-01-27T00:32:38.772Z,21.26
2019-01-27T00:34:40.376Z,21.30
2019-01-27T00:36:41.974Z,21.30
2019-01-27T00:38:43.580Z,21.30
2019-01-27T00:40:45.260Z,21.30
2019-01-27T00:42:46.914Z,21.29
2019-01-27T00:44:48.501Z,21.33
2019-01-27T00:46:50.084Z,21.33
2019-01-27T00:48:51.687Z,21.38
2019-01-27T00:50:53.316Z,21.46
2019-01-27T00:52:54.923Z,21.57
2019-01-27T00:54:56.521Z,21.56
2019-01-27T00:56:58.117Z,21.57
2019-01-27T00:58:59.735Z,21.62
2019-01-27T01:01:01.324Z,21.65
2019-01-27T01:03:02.951Z,21.70
2019-01-27T01:05:04.532Z,21.73
2019-01-27T01:07:06.133Z,21.75
2019-01-27T01:09:07.716Z,21.76
2019-01-27T01:11:09.309Z,21.78
2019-01-27T01:13:10.920Z,21.74
2019-01-27T01:15:12.561Z,21.76
2019-01-27T01:17:14.160Z,21.76
2019-01-27T01:19:15.753Z,21.75
2019-01-27T01:21:17.356Z,21.73
2019-01-27T01:23:19.273Z,21.67
2019-01-27T01:25:20.897Z,21.68
2019-01-27T01:27:22.549Z,21.66
2019-01-27T01:29:24.153Z,21.63
2019-01-27T01:31:25.755Z,21.38
2019-01-27T01:33:27.377Z,21.51
2019-01-27T01:35:29.001Z,21.49
2019-01-27T01:37:30.675Z,21.44
2019-01-27T01:39:32.264Z,21.41
2019-01-27T01:41:33.872Z,21.37
2019-01-27T01:43:35.925Z,21.37
2019-01-27T01:45:37.564Z,21.37
2019-01-27T01:47:39.177Z,21.32
2019-01-27T01:49:40.777Z,21.30
2019-01-27T01:51:42.374Z,21.29
2019-01-27T01:53:43.963Z,21.27
2019-01-27T01:55:45.561Z,21.27
2019-01-27T01:57:47.228Z,21.25
2019-01-27T01:59:48.826Z,21.26
2019-01-27T02:01:50.421Z,21.27
2019-01-27T02:03:52.023Z,21.25
2019-01-27T02:05:53.631Z,21.26
2019-01-27T02:07:55.274Z,21.31
2019-01-27T02:09:56.874Z,21.38
2019-01-27T02:11:58.488Z,21.41
2019-01-27T02:14:00.086Z,21.42
2019-01-27T02:16:01.696Z,21.61
2019-01-27T02:18:03.304Z,21.64
2019-01-27T02:20:04.893Z,21.45
2019-01-27T02:22:06.502Z,21.65
2019-01-27T02:24:08.112Z,21.69
2019-01-27T02:26:09.727Z,21.69
2019-01-27T02:28:11.350Z,21.67
2019-01-27T02:30:12.946Z,21.74
2019-01-27T02:32:14.545Z,21.74
2019-01-27T02:34:16.137Z,21.62
2019-01-27T02:36:17.730Z,21.53
2019-01-27T02:38:19.325Z,21.52
2019-01-27T02:40:20.947Z,21.60
2019-01-27T02:42:22.541Z,21.50
2019-01-27T02:44:24.129Z,21.37
2019-01-27T02:46:25.731Z,21.35
2019-01-27T02:48:27.361Z,21.37
2019-01-27T02:50:28.976Z,21.17
2019-01-27T02:52:30.714Z,21.36
2019-01-27T02:54:32.362Z,21.35
2019-01-27T02:56:33.973Z,21.33
2019-01-27T02:58:35.612Z,21.34
2019-01-27T03:00:37.237Z,21.33
2019-01-27T03:02:38.864Z,21.33
2019-01-27T03:04:40.462Z,21.33
2019-01-27T03:06:43.818Z,21.35
2019-01-27T03:08:45.462Z,21.36
2019-01-27T03:10:47.061Z,21.36
2019-01-27T03:12:48.682Z,21.36
2019-01-27T03:14:50.300Z,21.39
2019-01-27T03:16:51.900Z,21.41
2019-01-27T03:18:53.542Z,21.43
2019-01-27T03:20:55.156Z,21.43
2019-01-27T03:22:56.767Z,21.49
2019-01-27T03:24:58.415Z,21.51
2019-01-27T03:27:00.031Z,21.58
2019-01-27T03:29:01.630Z,21.67
2019-01-27T03:31:03.282Z,21.69
2019-01-27T03:33:04.889Z,21.67
2019-01-27T03:35:06.489Z,21.67
2019-01-27T03:37:08.085Z,21.66
2019-01-27T03:39:09.696Z,21.64
2019-01-27T03:41:11.293Z,21.62
2019-01-27T03:43:12.933Z,21.62
2019-01-27T03:45:14.519Z,21.69
2019-01-27T03:47:16.100Z,21.69
2019-01-27T03:49:17.707Z,21.67
2019-01-27T03:51:19.371Z,21.67
2019-01-27T03:53:20.977Z,21.64
2019-01-27T03:55:22.563Z,21.63
2019-01-27T03:57:24.212Z,21.60
2019-01-27T03:59:25.811Z,21.56
2019-01-27T04:01:27.412Z,21.54
2019-01-27T04:03:29.059Z,21.54
2019-01-27T04:05:30.674Z,21.52
2019-01-27T04:07:32.274Z,21.52
2019-01-27T04:09:33.878Z,21.51
2019-01-27T04:11:35.512Z,21.51
2019-01-27T04:13:37.119Z,21.50
2019-01-27T04:15:38.742Z,21.49
2019-01-27T04:17:40.338Z,21.49
2019-01-27T04:19:41.941Z,21.49
2019-01-27T04:21:43.557Z,21.48
2019-01-27T04:23:45.171Z,21.47
2019-01-27T04:25:46.793Z,21.48
2019-01-27T04:27:48.407Z,21.50
2019-01-27T04:29:50.005Z,21.50
2019-01-27T04:31:51.599Z,21.57
2019-01-27T04:33:53.260Z,21.58
2019-01-27T04:35:54.871Z,21.58
2019-01-27T04:37:56.486Z,21.59
2019-01-27T04:39:58.119Z,21.61
2019-01-27T04:41:59.722Z,21.65
2019-01-27T04:44:01.333Z,21.63
2019-01-27T04:46:02.975Z,21.64
2019-01-27T04:48:04.586Z,21.64
2019-01-27T04:50:06.189Z,21.69
2019-01-27T04:52:07.795Z,21.71
2019-01-27T04:54:09.399Z,21.67
2019-01-27T04:56:11.007Z,21.68
2019-01-27T04:58:12.693Z,21.65
2019-01-27T05:00:14.273Z,21.62
2019-01-27T05:02:15.870Z,21.58
2019-01-27T05:04:17.475Z,21.57
2019-01-27T05:06:19.083Z,21.52
2019-01-27T05:08:20.683Z,21.53
2019-01-27T05:10:22.336Z,21.51
2019-01-27T05:12:23.951Z,21.49
2019-01-27T05:14:25.554Z,21.49
2019-01-27T05:16:27.158Z,21.50
2019-01-27T05:18:28.757Z,21.49
2019-01-27T05:20:30.358Z,21.45
2019-01-27T05:22:31.958Z,21.43
2019-01-27T05:24:33.553Z,21.21
2019-01-27T05:26:35.151Z,21.43
2019-01-27T05:28:36.760Z,21.42
2019-01-27T05:30:38.461Z,21.42
2019-01-27T05:32:40.072Z,21.42
2019-01-27T05:34:41.684Z,21.45
2019-01-27T05:36:43.288Z,21.48
2019-01-27T05:38:44.945Z,21.45
2019-01-27T05:40:46.538Z,21.45
2019-01-27T05:42:48.773Z,21.48
2019-01-27T05:44:50.401Z,21.54
2019-01-27T05:46:52.008Z,21.61
2019-01-27T05:48:53.604Z,21.62
2019-01-27T05:50:55.211Z,21.65
2019-01-27T05:52:56.795Z,21.60
2019-01-27T05:54:58.435Z,21.65
2019-01-27T05:57:00.033Z,21.68
2019-01-27T05:59:01.647Z,21.69
2019-01-27T06:01:03.286Z,21.69
2019-01-27T06:03:04.870Z,21.63
2019-01-27T06:05:06.497Z,21.65
2019-01-27T06:07:08.107Z,21.62
2019-01-27T06:09:09.705Z,21.61
2019-01-27T06:11:11.288Z,21.53
2019-01-27T06:13:12.910Z,21.51
2019-01-27T06:15:14.547Z,21.50
2019-01-27T06:17:16.132Z,21.58
2019-01-27T06:19:17.739Z,21.55
2019-01-27T06:21:19.337Z,21.50
2019-01-27T06:23:21.313Z,21.46
2019-01-27T06:25:26.024Z,21.43
2019-01-27T06:27:24.623Z,21.40
2019-01-27T06:29:26.249Z,21.37
2019-01-27T06:31:27.847Z,21.35
2019-01-27T06:33:29.451Z,21.32
2019-01-27T06:35:31.086Z,21.24
2019-01-27T06:37:32.686Z,21.17
2019-01-27T06:39:34.322Z,21.13
2019-01-27T06:41:35.935Z,21.08
2019-01-27T06:43:37.529Z,21.02
2019-01-27T06:45:39.151Z,21.02
2019-01-27T06:47:40.735Z,21.04
2019-01-27T06:49:42.319Z,21.06
2019-01-27T06:51:43.914Z,21.08
2019-01-27T06:53:45.509Z,21.12
2019-01-27T06:55:47.119Z,21.15
2019-01-27T06:57:48.802Z,21.20
2019-01-27T06:59:56.027Z,21.25
2019-01-27T07:01:57.622Z,21.34
2019-01-27T07:03:59.242Z,21.38
2019-01-27T07:06:02.249Z,21.44
2019-01-27T07:08:03.843Z,21.44
2019-01-27T07:10:06.956Z,21.37
2019-01-27T07:12:12.071Z,21.25
2019-01-27T07:14:20.750Z,21.17
2019-01-27T07:16:33.561Z,21.09
2019-01-27T07:18:40.885Z,21.09
2019-01-27T07:20:52.433Z,21.11
2019-01-27T07:23:11.823Z,21.15
2019-01-27T07:25:16.846Z,21.18
2019-01-27T07:27:37.129Z,21.22
2019-01-27T07:29:39.213Z,21.28
2019-01-27T07:31:41.615Z,21.40
2019-01-27T07:33:58.090Z,21.45
2019-01-27T07:36:00.324Z,21.55
2019-01-27T07:38:03.534Z,21.62
2019-01-27T07:40:17.902Z,21.68
2019-01-27T07:42:19.978Z,21.70
2019-01-27T07:44:21.606Z,21.72
2019-01-27T07:46:23.851Z,21.71
2019-01-27T07:48:29.910Z,21.70
2019-01-27T07:50:33.036Z,21.71
2019-01-27T07:52:35.609Z,21.65
2019-01-27T07:54:42.159Z,21.63
2019-01-27T07:56:58.640Z,21.63
2019-01-27T07:59:04.907Z,21.58
2019-01-27T08:01:09.936Z,21.53
2019-01-27T08:03:13.958Z,21.56
2019-01-27T08:05:33.174Z,21.51
2019-01-27T08:07:36.462Z,21.45
2019-01-27T08:09:48.875Z,21.46
2019-01-27T08:11:51.089Z,21.46
2019-01-27T08:13:55.209Z,21.47
2019-01-27T08:15:59.549Z,21.44
2019-01-27T08:18:02.827Z,21.42
2019-01-27T08:20:06.966Z,21.42
2019-01-27T08:22:08.561Z,21.41
2019-01-27T08:24:23.857Z,21.39
2019-01-27T08:26:31.085Z,21.37
2019-01-27T08:28:44.347Z,21.36
2019-01-27T08:30:46.423Z,21.35
2019-01-27T08:32:48.061Z,21.36
2019-01-27T08:35:01.342Z,21.37
2019-01-27T08:37:05.460Z,21.42
2019-01-27T08:39:09.697Z,21.36
2019-01-27T08:41:26.173Z,21.61
2019-01-27T08:43:48.468Z,21.50
2019-01-27T08:45:50.799Z,21.49
2019-01-27T08:47:52.413Z,21.38
2019-01-27T08:49:54.010Z,21.22
2019-01-27T08:51:55.676Z,21.15
2019-01-27T08:53:57.274Z,21.19
2019-01-27T08:55:58.869Z,21.22
2019-01-27T08:58:00.508Z,21.24
2019-01-27T09:00:02.100Z,21.30
2019-01-27T09:02:06.345Z,21.33
2019-01-27T09:04:10.614Z,21.34
2019-01-27T09:06:12.981Z,21.32
2019-01-27T09:08:29.443Z,21.32
2019-01-27T09:10:45.964Z,21.35
2019-01-27T09:13:11.030Z,21.34
2019-01-27T09:15:07.674Z,21.35
2019-01-27T09:17:23.239Z,21.37
2019-01-27T09:19:25.450Z,21.37
2019-01-27T09:21:29.566Z,21.19
2019-01-27T09:23:46.617Z,21.38
2019-01-27T09:25:48.200Z,21.40
2019-01-27T09:27:55.515Z,21.41
2019-01-27T09:30:02.857Z,21.41
2019-01-27T09:32:10.095Z,21.41
2019-01-27T09:34:32.581Z,21.41
2019-01-27T09:36:50.971Z,21.43
2019-01-27T09:38:52.614Z,21.41
2019-01-27T09:40:56.096Z,21.29
2019-01-27T09:43:04.282Z,21.42
2019-01-27T09:45:06.372Z,21.42
2019-01-27T09:47:26.734Z,21.42
2019-01-27T09:49:28.948Z,21.41
2019-01-27T09:51:31.064Z,21.40
2019-01-27T09:53:35.142Z,21.40
2019-01-27T09:55:40.565Z,21.39
2019-01-27T09:57:46.924Z,21.59
2019-01-27T09:59:48.518Z,22.08
2019-01-27T10:01:58.872Z,22.53
2019-01-27T10:04:06.399Z,22.55
2019-01-27T10:06:22.887Z,22.53
2019-01-27T10:08:44.368Z,22.61
2019-01-27T10:10:47.708Z,22.74
2019-01-27T10:12:54.863Z,22.72
2019-01-27T10:14:57.239Z,22.63
2019-01-27T10:17:06.563Z,22.58
2019-01-27T10:19:08.162Z,22.53
2019-01-27T10:21:22.603Z,22.58
2019-01-27T10:23:25.099Z,22.60
2019-01-27T10:25:31.191Z,22.55
2019-01-27T10:27:36.605Z,21.99
2019-01-27T10:29:39.770Z,20.68
2019-01-27T10:31:44.114Z,21.53
2019-01-27T10:33:45.709Z,21.48
2019-01-27T10:35:50.059Z,21.47
2019-01-27T10:38:01.573Z,21.60
2019-01-27T10:40:09.276Z,22.32
2019-01-27T10:42:19.165Z,22.68
2019-01-27T10:44:35.645Z,22.47
2019-01-27T10:46:42.937Z,22.12
2019-01-27T10:48:45.457Z,21.78
2019-01-27T10:50:58.779Z,21.59
2019-01-27T10:53:07.805Z,21.63
2019-01-27T10:55:11.797Z,21.58
2019-01-27T10:57:13.956Z,21.43
2019-01-27T10:59:17.110Z,21.30
2019-01-27T11:01:37.348Z,21.20
2019-01-27T11:03:53.825Z,21.15
2019-01-27T11:06:01.033Z,21.13
2019-01-27T11:08:06.094Z,21.14
2019-01-27T11:10:08.233Z,21.16
2019-01-27T11:12:14.622Z,21.20
2019-01-27T11:14:32.965Z,21.27
2019-01-27T11:16:40.365Z,21.33
2019-01-27T11:18:44.788Z,21.40
2019-01-27T11:20:49.307Z,21.44
2019-01-27T11:22:54.356Z,21.53
2019-01-27T11:24:57.696Z,21.55
2019-01-27T11:26:59.864Z,21.60
2019-01-27T11:29:02.869Z,21.63
2019-01-27T11:31:10.257Z,21.65
2019-01-27T11:33:20.499Z,21.65
2019-01-27T11:35:23.026Z,21.68
2019-01-27T11:37:35.471Z,21.69
2019-01-27T11:39:53.835Z,21.73
2019-01-27T11:42:00.006Z,21.74
2019-01-27T11:44:17.276Z,21.71
2019-01-27T11:46:18.888Z,21.73
2019-01-27T11:48:21.404Z,21.74
2019-01-27T11:50:23.041Z,21.73
2019-01-27T11:52:24.643Z,21.74
2019-01-27T11:54:26.241Z,21.73
2019-01-27T11:56:27.858Z,21.70
2019-01-27T11:58:29.458Z,21.66
2019-01-27T12:00:31.378Z,21.64
2019-01-27T12:02:35.835Z,21.60
2019-01-27T12:04:37.434Z,21.56
2019-01-27T12:06:39.093Z,21.53
2019-01-27T12:08:40.694Z,21.50
2019-01-27T12:10:42.314Z,21.48
2019-01-27T12:12:44.022Z,21.47
2019-01-27T12:14:45.619Z,21.42
2019-01-27T12:16:47.246Z,21.39
2019-01-27T12:18:49.828Z,21.33
2019-01-27T12:20:50.527Z,21.30
2019-01-27T12:22:52.140Z,21.28
2019-01-27T12:24:53.796Z,21.26
2019-01-27T12:26:55.405Z,21.24
2019-01-27T12:28:57.015Z,21.21
2019-01-27T12:30:58.604Z,21.22
2019-01-27T12:33:00.197Z,21.19
2019-01-27T12:35:01.793Z,21.20
2019-01-27T12:37:03.379Z,21.18
2019-01-27T12:39:04.991Z,21.19
2019-01-27T12:41:06.682Z,21.19
2019-01-27T12:43:08.418Z,21.18
2019-01-27T12:45:10.106Z,21.20
2019-01-27T12:47:11.760Z,21.22
2019-01-27T12:49:13.373Z,21.27
2019-01-27T12:51:14.984Z,21.25
2019-01-27T12:53:16.605Z,21.28
2019-01-27T12:55:18.258Z,21.31
2019-01-27T12:57:19.905Z,21.32
2019-01-27T12:59:21.565Z,21.31
2019-01-27T13:01:23.206Z,21.31
2019-01-27T13:03:24.843Z,21.35
2019-01-27T13:05:26.468Z,21.36
2019-01-27T13:07:28.075Z,21.36
2019-01-27T13:09:29.765Z,21.37
2019-01-27T13:11:31.374Z,21.39
2019-01-27T13:13:32.996Z,21.40
2019-01-27T13:15:34.763Z,21.38
2019-01-27T13:17:36.479Z,21.38
2019-01-27T13:19:38.099Z,21.39
2019-01-27T13:21:40.660Z,21.41
2019-01-27T13:23:42.271Z,21.40
2019-01-27T13:25:43.866Z,21.40
2019-01-27T13:27:45.521Z,21.42
2019-01-27T13:29:47.113Z,21.43
2019-01-27T13:31:49.373Z,21.46
2019-01-27T13:33:51.003Z,21.46
2019-01-27T13:35:52.655Z,21.45
2019-01-27T13:37:55.169Z,21.44
2019-01-27T13:39:56.821Z,21.44
2019-01-27T13:41:58.465Z,21.42
2019-01-27T13:44:00.113Z,21.44
2019-01-27T13:46:01.758Z,21.41
2019-01-27T13:48:03.362Z,21.44
2019-01-27T13:50:04.966Z,21.46
2019-01-27T13:52:06.586Z,21.42
2019-01-27T13:54:08.437Z,21.41
2019-01-27T13:56:10.892Z,21.41
2019-01-27T13:58:12.494Z,21.40
2019-01-27T14:00:14.128Z,21.38
2019-01-27T14:02:15.712Z,21.40
2019-01-27T14:04:17.331Z,21.37
2019-01-27T14:06:18.948Z,21.35
2019-01-27T14:08:20.562Z,21.36
2019-01-27T14:10:22.192Z,21.36
2019-01-27T14:12:23.776Z,21.33
2019-01-27T14:14:25.359Z,21.32
2019-01-27T14:16:26.953Z,21.32
2019-01-27T14:18:28.554Z,21.35
2019-01-27T14:20:30.197Z,21.31
2019-01-27T14:22:32.046Z,21.35
2019-01-27T14:24:33.647Z,21.32
2019-01-27T14:26:35.284Z,21.35
2019-01-27T14:28:36.901Z,21.33
2019-01-27T14:30:38.514Z,21.32
2019-01-27T14:32:40.169Z,21.34
2019-01-27T14:34:41.769Z,21.32
2019-01-27T14:36:43.365Z,21.34
2019-01-27T14:38:44.977Z,21.35
2019-01-27T14:40:46.723Z,21.35
2019-01-27T14:42:48.336Z,21.33
2019-01-27T14:44:50.008Z,21.35
2019-01-27T14:46:51.707Z,21.34
2019-01-27T14:48:53.451Z,21.45
2019-01-27T14:50:55.076Z,21.46
2019-01-27T14:52:56.702Z,21.49
2019-01-27T14:54:58.313Z,21.24
2019-01-27T14:56:59.910Z,20.86
2019-01-27T14:59:01.507Z,20.54
2019-01-27T15:01:03.134Z,20.95
2019-01-27T15:03:04.740Z,21.21
2019-01-27T15:05:06.365Z,21.36
2019-01-27T15:07:07.956Z,21.53
2019-01-27T15:09:10.339Z,22.20
2019-01-27T15:11:12.008Z,22.50
2019-01-27T15:13:13.631Z,22.69
2019-01-27T15:15:15.260Z,22.68
2019-01-27T15:17:16.940Z,22.72
2019-01-27T15:19:18.573Z,22.76
2019-01-27T15:21:20.185Z,22.90
2019-01-27T15:23:21.777Z,22.97
2019-01-27T15:25:23.415Z,23.06
2019-01-27T15:27:25.010Z,23.02
2019-01-27T15:29:26.623Z,23.13
2019-01-27T15:31:28.226Z,23.09
2019-01-27T15:33:29.854Z,23.06
2019-01-27T15:35:31.472Z,22.96
2019-01-27T15:37:33.135Z,22.85
2019-01-27T15:39:35.180Z,22.80
2019-01-27T15:41:36.776Z,22.59
2019-01-27T15:43:38.403Z,22.45
2019-01-27T15:45:40.016Z,22.61
2019-01-27T15:47:41.603Z,22.38
2019-01-27T15:49:43.201Z,22.33
2019-01-27T15:51:44.807Z,22.27
2019-01-27T15:53:46.439Z,22.28
2019-01-27T15:55:48.065Z,22.40
2019-01-27T15:57:49.720Z,22.49
2019-01-27T15:59:51.323Z,22.47
2019-01-27T16:01:52.951Z,22.47
2019-01-27T16:03:54.536Z,22.47
2019-01-27T16:05:56.167Z,22.43
2019-01-27T16:07:57.786Z,22.50
2019-01-27T16:09:59.391Z,22.25
2019-01-27T16:12:01.059Z,22.25
2019-01-27T16:14:02.663Z,22.29
2019-01-27T16:16:04.276Z,22.29
2019-01-27T16:18:05.913Z,22.54
2019-01-27T16:20:07.513Z,22.75
2019-01-27T16:22:09.115Z,22.70
2019-01-27T16:24:10.727Z,22.78
2019-01-27T16:26:12.376Z,22.41
2019-01-27T16:28:13.992Z,22.17
2019-01-27T16:30:16.226Z,22.41
2019-01-27T16:32:17.914Z,22.68
2019-01-27T16:34:19.638Z,22.96
2019-01-27T16:36:21.264Z,23.38
2019-01-27T16:38:22.877Z,23.27
2019-01-27T16:40:24.464Z,23.24
2019-01-27T16:42:26.067Z,22.54
2019-01-27T16:44:27.690Z,23.18
2019-01-27T16:46:29.286Z,23.39
2019-01-27T16:48:30.915Z,22.83
2019-01-27T16:50:32.556Z,23.13
2019-01-27T16:52:34.189Z,23.20
2019-01-27T16:54:35.845Z,23.48
2019-01-27T16:56:37.458Z,23.61
2019-01-27T16:58:39.068Z,23.47
2019-01-27T17:00:40.670Z,23.51
2019-01-27T17:02:42.308Z,23.45
2019-01-27T17:04:43.993Z,23.55
2019-01-27T17:06:45.622Z,23.04
2019-01-27T17:08:47.217Z,23.33
2019-01-27T17:10:48.890Z,23.62
2019-01-27T17:12:50.499Z,23.62
2019-01-27T17:14:52.111Z,23.48
2019-01-27T17:16:53.753Z,23.48
2019-01-27T17:18:55.370Z,23.42
2019-01-27T17:20:57.045Z,23.53
2019-01-27T17:22:58.659Z,23.42
2019-01-27T17:25:00.272Z,23.29
2019-01-27T17:27:01.892Z,23.55
2019-01-27T17:29:04.184Z,23.38
2019-01-27T17:31:05.785Z,23.21
2019-01-27T17:33:07.397Z,22.98
2019-01-27T17:35:08.990Z,23.43
2019-01-27T17:37:10.656Z,23.36
2019-01-27T17:39:12.258Z,23.11
2019-01-27T17:41:13.854Z,23.01
2019-01-27T17:43:15.464Z,23.58
2019-01-27T17:45:17.062Z,23.69
2019-01-27T17:47:18.658Z,23.58
2019-01-27T17:49:20.277Z,23.76
2019-01-27T17:51:21.879Z,23.46
2019-01-27T17:53:23.477Z,23.37
2019-01-27T17:55:41.886Z,23.51
2019-01-27T17:57:44.454Z,23.65
2019-01-27T17:59:46.139Z,23.64
2019-01-27T18:01:53.471Z,23.44
2019-01-27T18:03:55.071Z,23.45
2019-01-27T18:06:11.466Z,23.02
2019-01-27T18:08:13.078Z,22.49
2019-01-27T18:10:18.515Z,22.57
2019-01-27T18:12:30.044Z,22.33
2019-01-27T18:14:31.656Z,22.81
2019-01-27T18:16:33.289Z,23.11
2019-01-27T18:18:34.886Z,23.37
2019-01-27T18:20:36.496Z,23.37
2019-01-27T18:22:38.147Z,23.42
2019-01-27T18:24:39.742Z,23.40
2019-01-27T18:26:41.348Z,23.54
2019-01-27T18:28:42.974Z,23.56
2019-01-27T18:30:44.581Z,23.72
2019-01-27T18:32:46.251Z,23.66
2019-01-27T18:34:48.000Z,22.77
2019-01-27T18:36:49.659Z,22.39
2019-01-27T18:38:51.345Z,22.19
2019-01-27T18:40:52.953Z,22.09
2019-01-27T18:42:54.565Z,22.02
2019-01-27T18:44:56.165Z,21.77
2019-01-27T18:46:58.659Z,21.77
2019-01-27T18:49:00.263Z,21.84
2019-01-27T18:51:01.889Z,21.86
2019-01-27T18:53:03.520Z,22.02
2019-01-27T18:55:11.046Z,22.47
2019-01-27T18:57:13.308Z,23.10
2019-01-27T18:59:20.827Z,23.42
2019-01-27T19:04:24.615Z,23.64
2019-01-27T19:06:30.149Z,23.75
2019-01-27T19:08:33.853Z,23.65
2019-01-27T19:10:45.379Z,23.38
2019-01-27T19:12:47.919Z,23.40
2019-01-27T19:14:55.239Z,23.30
2019-01-27T19:17:02.356Z,23.29
2019-01-27T19:19:10.749Z,23.34
2019-01-27T19:21:12.870Z,23.41
2019-01-27T19:23:16.013Z,23.37
2019-01-27T19:25:33.499Z,23.47
2019-01-27T19:27:39.791Z,23.59
2019-01-27T19:29:46.150Z,23.57
2019-01-27T19:31:51.399Z,23.65
2019-01-27T19:33:55.629Z,23.63
2019-01-27T19:36:02.880Z,23.68
2019-01-27T19:38:19.358Z,23.61
2019-01-27T19:40:35.843Z,23.76
2019-01-27T19:42:55.142Z,23.69
2019-01-27T19:45:06.690Z,23.74
2019-01-27T19:47:23.976Z,23.77
2019-01-27T19:49:40.503Z,23.63
2019-01-27T19:51:42.568Z,23.00
2019-01-27T19:53:47.069Z,23.15
2019-01-27T19:55:52.666Z,22.97
2019-01-27T19:57:56.001Z,23.01
2019-01-27T20:00:12.555Z,23.00
2019-01-27T20:02:29.109Z,22.80
2019-01-27T20:04:32.468Z,22.78
2019-01-27T20:06:39.871Z,22.73
2019-01-27T20:08:42.989Z,22.80
2019-01-27T20:10:47.591Z,22.79
2019-01-27T20:13:08.621Z,22.77
2019-01-27T20:15:11.435Z,22.75
2019-01-27T20:17:27.913Z,22.76
2019-01-27T20:19:33.197Z,22.76
2019-01-27T20:21:35.340Z,22.78
2019-01-27T20:23:41.855Z,22.81
2019-01-27T20:25:47.188Z,22.58
2019-01-27T20:27:52.424Z,22.66
2019-01-27T20:30:09.862Z,22.73
2019-01-27T20:32:12.222Z,22.89
2019-01-27T20:34:19.654Z,22.97
2019-01-27T20:36:22.139Z,23.20
2019-01-27T20:38:28.156Z,23.11
2019-01-27T20:40:31.421Z,23.09
2019-01-27T20:42:33.021Z,23.19
2019-01-27T20:44:34.680Z,23.12
2019-01-27T20:46:37.201Z,23.05
2019-01-27T20:48:40.243Z,22.94
2019-01-27T20:50:48.368Z,23.41
2019-01-27T20:52:50.746Z,23.69
2019-01-27T20:54:58.037Z,23.33
2019-01-27T20:57:04.132Z,23.51
2019-01-27T20:59:20.614Z,23.48
2019-01-27T21:01:37.825Z,23.25
2019-01-27T21:03:56.121Z,22.86
2019-01-27T21:05:58.779Z,22.72
2019-01-27T21:08:06.962Z,22.88
2019-01-27T21:10:14.063Z,22.95
2019-01-27T21:12:18.612Z,23.09
2019-01-27T21:14:21.032Z,23.10
2019-01-27T21:16:24.550Z,23.15
2019-01-27T21:18:29.989Z,23.16
2019-01-27T21:20:31.586Z,22.93
2019-01-27T21:22:33.185Z,22.51
2019-01-27T21:24:34.816Z,21.50
2019-01-27T21:26:36.413Z,20.70
2019-01-27T21:28:38.024Z,20.65
2019-01-27T21:30:39.634Z,21.11
2019-01-27T21:32:41.248Z,20.81
2019-01-27T21:34:42.850Z,21.20
2019-01-27T21:36:44.482Z,21.41
2019-01-27T21:38:46.082Z,21.57
2019-01-27T21:40:47.684Z,21.60
2019-01-27T21:42:49.312Z,21.65
2019-01-27T21:44:50.909Z,21.66
2019-01-27T21:46:52.505Z,21.67
2019-01-27T21:48:54.111Z,21.71
2019-01-27T21:50:55.696Z,21.70
2019-01-27T21:52:57.290Z,21.70
2019-01-27T21:54:58.893Z,21.68
2019-01-27T21:57:00.533Z,21.66
2019-01-27T21:59:02.174Z,21.64
2019-01-27T22:01:03.760Z,21.62
2019-01-27T22:03:05.356Z,21.59
2019-01-27T22:05:06.994Z,21.55
2019-01-27T22:07:08.599Z,21.55
2019-01-27T22:09:10.204Z,21.52
2019-01-27T22:11:11.801Z,21.52
2019-01-27T22:13:13.401Z,21.51
2019-01-27T22:15:14.997Z,21.48
2019-01-27T22:17:16.650Z,21.48
2019-01-27T22:19:18.260Z,21.46
2019-01-27T22:21:19.873Z,21.46
2019-01-27T22:23:21.474Z,21.45
2019-01-27T22:25:23.070Z,21.46
2019-01-27T22:27:24.665Z,21.38
2019-01-27T22:29:26.247Z,21.33
2019-01-27T22:31:27.842Z,21.27
2019-01-27T22:33:29.483Z,21.21
2019-01-27T22:35:31.091Z,21.22
2019-01-27T22:37:32.708Z,21.19
2019-01-27T22:39:34.333Z,21.16
2019-01-27T22:41:35.939Z,21.15
2019-01-27T22:43:37.533Z,21.13
2019-01-27T22:45:39.154Z,21.14
2019-01-27T22:47:40.754Z,21.16
2019-01-27T22:49:42.363Z,21.15
2019-01-27T22:51:43.966Z,21.14
2019-01-27T22:53:45.552Z,21.11
2019-01-27T22:55:47.200Z,21.11
2019-01-27T22:57:48.806Z,21.09
2019-01-27T22:59:50.401Z,21.08
2019-01-27T23:01:52.063Z,21.16
2019-01-27T23:03:53.657Z,21.06
2019-01-27T23:05:55.257Z,21.01
2019-01-27T23:07:56.879Z,21.07
2019-01-27T23:09:58.491Z,21.07
2019-01-27T23:12:00.103Z,21.07
2019-01-27T23:14:01.706Z,21.08
2019-01-27T23:16:03.301Z,21.08
2019-01-27T23:18:04.908Z,21.11
2019-01-27T23:20:06.553Z,21.09
2019-01-27T23:22:08.149Z,21.08
2019-01-27T23:24:09.763Z,21.07
2019-01-27T23:26:11.353Z,21.09
2019-01-27T23:28:12.936Z,21.08
2019-01-27T23:30:14.529Z,21.08
2019-01-27T23:32:16.159Z,21.09
2019-01-27T23:34:17.775Z,21.10
2019-01-27T23:36:19.432Z,21.12
2019-01-27T23:38:21.030Z,21.12
2019-01-27T23:40:22.635Z,21.13
2019-01-27T23:42:24.269Z,21.13
2019-01-27T23:44:25.866Z,21.13
2019-01-27T23:46:27.477Z,21.11
2019-01-27T23:48:29.073Z,21.09
2019-01-27T23:50:30.679Z,21.13
2019-01-27T23:52:32.285Z,21.17
2019-01-27T23:54:33.905Z,21.16
2019-01-27T23:56:35.497Z,21.15
2019-01-27T23:58:37.089Z,21.13
